Time;durP1;ratioP1;P1;durP2;ratioP2;P2;SDS_P1;SDS_P2;PMS_P1;PMS_P2;Temp;Humidity;BMP_temperature;BMP_pressure;BME280_temperature;BME280_humidity;BME280_pressure;Samples;Min_cycle;Max_cycle;Signal;HPM_P1;HPM_P2
2021/07/15 00:00:19;;;;;;;3.25;0.57;;;;;;;17.75;72.73;99317.44;2196183;40;20347;-83
2021/07/15 00:01:52;;;;;;;2.65;0.57;;;;;;;17.77;72.83;99323.50;2196314;40;20035;-86
2021/07/15 00:03:28;;;;;;;2.72;0.60;;;;;;;17.74;72.95;99314.97;2196155;40;20047;-85
2021/07/15 00:05:00;;;;;;;2.85;0.40;;;;;;;17.76;73.00;99318.28;2207568;40;20038;-82
2021/07/15 00:06:32;;;;;;;1.75;0.70;;;;;;;17.77;72.74;99319.94;2208308;40;20251;-86
2021/07/15 00:08:04;;;;;;;1.75;0.52;;;;;;;17.78;72.63;99318.91;2208144;40;20138;-84
2021/07/15 00:09:36;;;;;;;1.00;0.50;;;;;;;17.77;72.53;99319.94;2208336;40;20038;-84
2021/07/15 00:11:11;;;;;;;1.42;0.50;;;;;;;17.72;72.59;99309.75;2208393;40;20379;-85
2021/07/15 00:12:43;;;;;;;1.83;0.80;;;;;;;17.75;72.85;99311.22;2207512;40;20041;-82
2021/07/15 00:14:18;;;;;;;1.17;0.40;;;;;;;17.76;72.84;99307.47;2208229;40;20425;-83
2021/07/15 00:15:52;;;;;;;1.58;0.50;;;;;;;17.76;73.06;99319.13;2209027;40;20035;-84
2021/07/15 00:17:24;;;;;;;1.67;0.60;;;;;;;17.72;72.88;99317.88;2208851;40;20105;-85
2021/07/15 00:19:00;;;;;;;3.70;0.80;;;;;;;17.74;72.99;99320.38;2209336;40;20561;-83
2021/07/15 00:20:35;;;;;;;2.67;1.25;;;;;;;17.72;73.12;99314.34;2206836;40;20116;-84
2021/07/15 00:22:06;;;;;;;1.42;0.40;;;;;;;17.71;73.12;99308.09;2207174;40;20094;-86
2021/07/15 00:23:40;;;;;;;0.95;0.40;;;;;;;17.69;73.03;99306.66;2206515;40;20049;-85
2021/07/15 00:25:16;;;;;;;1.73;0.60;;;;;;;17.71;73.37;99309.97;2205710;40;20042;-84
2021/07/15 00:26:48;;;;;;;1.02;0.35;;;;;;;17.67;73.36;99311.41;2206330;40;20038;-83
2021/07/15 00:28:20;;;;;;;2.55;0.60;;;;;;;17.65;73.78;99300.81;2208035;40;20121;-84
2021/07/15 00:29:54;;;;;;;2.85;0.60;;;;;;;17.69;73.76;99303.94;2208230;40;20058;-84
2021/07/15 00:31:26;;;;;;;2.63;0.60;;;;;;;17.70;73.41;99292.94;2206969;40;20042;-83
2021/07/15 00:32:57;;;;;;;6.30;0.60;;;;;;;17.73;73.72;99291.69;2208319;40;20415;-85
2021/07/15 00:34:31;;;;;;;4.97;0.57;;;;;;;17.72;73.84;99295.41;2208691;40;20038;-84
2021/07/15 00:36:03;;;;;;;2.17;0.60;;;;;;;17.70;73.64;99295.63;2208254;40;20023;-86
2021/07/15 00:37:36;;;;;;;1.30;0.50;;;;;;;17.68;74.03;99295.00;2196126;40;20098;-83
2021/07/15 00:39:09;;;;;;;1.40;0.50;;;;;;;17.66;74.12;99286.28;2196268;40;20035;-85
2021/07/15 00:40:40;;;;;;;1.17;0.50;;;;;;;17.66;74.05;99296.28;2196485;40;20047;-84
2021/07/15 00:42:12;;;;;;;1.70;0.60;;;;;;;17.66;74.20;99290.88;2197046;40;20040;-85
2021/07/15 00:43:44;;;;;;;1.30;0.57;;;;;;;17.60;74.03;99290.66;2197356;40;20043;-86
2021/07/15 00:45:18;;;;;;;1.27;0.40;;;;;;;17.57;74.33;99288.34;2197054;40;20035;-85
2021/07/15 00:46:50;;;;;;;1.05;0.47;;;;;;;17.58;74.59;99289.19;2196489;40;20046;-86
2021/07/15 00:48:22;;;;;;;2.10;0.60;;;;;;;17.57;74.62;99280.25;2196997;40;20039;-83
2021/07/15 00:49:54;;;;;;;2.95;0.40;;;;;;;17.58;74.63;99287.31;2195022;40;20355;-82
2021/07/15 00:51:31;;;;;;;1.30;0.60;;;;;;;17.56;74.26;99278.63;2195830;40;20054;-86
2021/07/15 00:53:03;;;;;;;1.25;0.40;;;;;;;17.57;74.55;99282.94;2194747;40;20042;-84
2021/07/15 00:54:35;;;;;;;1.63;0.50;;;;;;;17.52;74.58;99273.84;2195446;40;20362;-84
2021/07/15 00:56:09;;;;;;;1.20;0.60;;;;;;;17.49;74.79;99279.66;2193801;40;20027;-83
2021/07/15 00:57:42;;;;;;;1.45;0.50;;;;;;;17.47;74.62;99277.16;2193566;40;20039;-83
2021/07/15 00:59:14;;;;;;;1.05;0.40;;;;;;;17.43;75.01;99278.59;2193591;40;20043;-82
2021/07/15 01:00:49;;;;;;;2.20;0.65;;;;;;;17.43;74.71;99274.03;2193592;40;20039;-83
2021/07/15 01:02:20;;;;;;;2.45;0.63;;;;;;;17.42;75.10;99275.09;2194427;40;20040;-84
2021/07/15 01:03:52;;;;;;;3.67;0.70;;;;;;;17.43;74.70;99273.19;2193534;40;20126;-84
2021/07/15 01:05:28;;;;;;;0.85;0.30;;;;;;;17.40;74.78;99279.00;2194213;40;20039;-81
2021/07/15 01:07:00;;;;;;;0.95;0.30;;;;;;;17.40;75.15;99276.31;2193168;40;20035;-81
2021/07/15 01:08:32;;;;;;;1.17;0.30;;;;;;;17.38;74.81;99267.59;2194105;40;20039;-82
2021/07/15 01:10:05;;;;;;;3.40;0.57;;;;;;;17.36;74.85;99270.50;2195360;40;20128;-84
2021/07/15 01:11:57;;;;;;;1.33;0.40;;;;;;;17.28;75.20;99268.84;2195287;40;20039;-81
2021/07/15 01:13:58;;;;;;;2.35;0.60;;;;;;;17.27;75.23;99275.28;2195951;40;20034;-84
2021/07/15 01:15:38;;;;;;;1.25;0.47;;;;;;;17.26;75.49;99264.69;2194878;40;20038;-82
2021/07/15 01:17:16;;;;;;;1.83;0.50;;;;;;;17.27;75.13;99267.19;2197066;40;20082;-85
2021/07/15 01:19:02;;;;;;;2.08;0.40;;;;;;;17.28;75.23;99266.16;2197504;40;20054;-84
2021/07/15 01:28:01;;;;;;;1.27;0.50;;;;;;;17.11;75.43;99272.97;2198212;40;20040;-86
2021/07/15 01:34:09;;;;;;;3.47;0.70;;;;;;;16.99;76.11;99270.91;2209512;40;20078;-83
2021/07/15 01:35:44;;;;;;;4.10;0.60;;;;;;;16.95;76.30;99260.72;2199438;40;20212;-81
2021/07/15 01:37:15;;;;;;;0.88;0.30;;;;;;;16.95;76.45;99263.44;2199772;40;20035;-82
2021/07/15 01:38:53;;;;;;;2.92;0.40;;;;;;;16.98;76.34;99273.78;2199170;40;20145;-83
2021/07/15 01:40:32;;;;;;;3.15;0.45;;;;;;;16.98;76.36;99274.66;2206225;40;20422;-83
2021/07/15 01:42:08;;;;;;;3.30;0.50;;;;;;;16.95;76.46;99275.03;2205359;40;20033;-82
2021/07/15 01:43:43;;;;;;;1.83;0.50;;;;;;;16.94;76.53;99281.47;2205062;40;20063;-82
2021/07/15 01:45:15;;;;;;;2.38;0.30;;;;;;;16.95;76.44;99280.44;2205416;40;20046;-81
2021/07/15 01:46:48;;;;;;;2.33;0.40;;;;;;;16.98;76.29;99279.19;2204582;40;20051;-82
2021/07/15 01:48:20;;;;;;;0.75;0.30;;;;;;;17.02;76.54;99283.16;2205065;40;20116;-82
2021/07/15 01:49:56;;;;;;;1.77;0.50;;;;;;;17.02;76.50;99285.00;2205387;40;20043;-80
2021/07/15 01:51:29;;;;;;;1.00;0.30;;;;;;;17.03;76.24;99289.38;2205219;40;20038;-82
2021/07/15 01:53:01;;;;;;;2.25;0.50;;;;;;;17.05;76.32;99296.22;2205070;40;20047;-82
2021/07/15 01:54:32;;;;;;;0.25;0.22;;;;;;;17.04;76.06;99304.53;2204006;40;20065;-81
2021/07/15 01:56:07;;;;;;;1.25;0.30;;;;;;;17.06;76.33;99297.91;2204208;40;20038;-81
2021/07/15 01:57:40;;;;;;;1.35;0.25;;;;;;;17.08;76.22;99295.00;2204373;40;20418;-80
2021/07/15 01:59:15;;;;;;;2.53;0.40;;;;;;;17.11;75.91;99294.56;2203817;40;20149;-82
2021/07/15 02:00:47;;;;;;;1.25;0.40;;;;;;;17.12;75.90;99290.84;2203879;40;20041;-82
2021/07/15 03:18:38;;;;;;;0.65;0.30;;;;;;;17.00;75.74;99315.75;2206285;40;20426;-83
2021/07/15 03:20:14;;;;;;;3.63;0.40;;;;;;;17.00;75.78;99313.03;2205279;40;20046;-80
2021/07/15 03:21:48;;;;;;;1.75;0.30;;;;;;;17.02;75.76;99312.00;2203339;40;20034;-82
2021/07/15 03:23:21;;;;;;;2.25;0.40;;;;;;;17.05;76.01;99317.00;2191115;40;20050;-82
2021/07/15 03:24:58;;;;;;;2.05;0.40;;;;;;;17.07;75.76;99320.34;2201720;40;20034;-82
2021/07/15 03:26:31;;;;;;;2.33;0.30;;;;;;;17.04;75.92;99320.75;2209137;40;20033;-83
2021/07/15 03:28:09;;;;;;;2.17;0.40;;;;;;;17.03;75.77;99329.88;2209640;40;20038;-85
2021/07/15 03:29:45;;;;;;;0.65;0.28;;;;;;;17.00;75.92;99323.03;2209811;40;20018;-84
2021/07/15 03:31:18;;;;;;;0.43;0.20;;;;;;;17.00;75.97;99326.53;2209815;40;20114;-85
2021/07/15 03:32:51;;;;;;;1.13;0.30;;;;;;;17.02;75.93;99322.81;2209959;40;20023;-84
2021/07/15 03:34:28;;;;;;;0.90;0.30;;;;;;;17.07;75.61;99325.75;2209985;40;20037;-86
2021/07/15 03:36:02;;;;;;;0.55;0.25;;;;;;;17.07;75.45;99325.75;2209994;40;20049;-84
2021/07/15 03:37:37;;;;;;;1.42;0.40;;;;;;;17.05;75.70;99327.81;2210030;40;20027;-85
2021/07/15 03:39:08;;;;;;;2.40;0.63;;;;;;;17.00;75.75;99331.94;2209893;40;20037;-84
2021/07/15 03:40:41;;;;;;;1.25;0.30;;;;;;;16.99;75.54;99327.59;2212363;40;20057;-83
2021/07/15 03:42:14;;;;;;;2.40;0.32;;;;;;;17.00;75.53;99329.25;2216013;40;20033;-84
2021/07/15 03:43:46;;;;;;;2.30;0.50;;;;;;;17.00;75.74;99326.53;2216007;40;20116;-82
2021/07/15 03:45:20;;;;;;;0.93;0.40;;;;;;;16.97;75.55;99304.53;2216086;40;20058;-82
2021/07/15 03:46:54;;;;;;;1.58;0.40;;;;;;;16.92;75.82;99313.22;2216017;40;20061;-82
2021/07/15 03:48:27;;;;;;;2.53;0.40;;;;;;;16.88;75.68;99303.88;2217863;40;20029;-83
2021/07/15 03:50:01;;;;;;;0.77;0.38;;;;;;;16.88;75.88;99303.88;2222298;40;20025;-80
2021/07/15 03:51:35;;;;;;;2.05;0.50;;;;;;;16.88;75.97;99305.72;2222189;40;20029;-83
2021/07/15 03:53:08;;;;;;;1.60;0.50;;;;;;;16.87;75.97;99304.91;2216099;40;20042;-85
2021/07/15 03:54:41;;;;;;;3.72;1.00;;;;;;;16.88;76.14;99295.78;2215242;40;20109;-84
2021/07/15 03:56:15;;;;;;;1.73;0.57;;;;;;;16.83;75.96;99300.94;2216046;40;20045;-83
2021/07/15 03:57:48;;;;;;;2.30;0.70;;;;;;;16.83;75.88;99314.44;2216115;40;20395;-84
2021/07/15 03:59:21;;;;;;;2.15;0.40;;;;;;;16.81;76.04;99311.94;2216254;40;20117;-85
2021/07/15 04:00:59;;;;;;;3.53;0.70;;;;;;;16.85;75.90;99306.97;2216301;40;20042;-83
2021/07/15 04:02:32;;;;;;;2.30;0.50;;;;;;;16.86;75.99;99313.22;2216046;40;20026;-85
2021/07/15 04:04:06;;;;;;;2.40;0.73;;;;;;;16.88;76.00;99306.56;2216071;40;20030;-85
2021/07/15 04:05:41;;;;;;;0.73;0.30;;;;;;;16.83;76.27;99315.28;2216295;40;20058;-85
2021/07/15 04:07:14;;;;;;;1.88;0.77;;;;;;;16.87;76.14;99320.25;2216268;40;20030;-87
2021/07/15 04:08:47;;;;;;;0.75;0.30;;;;;;;16.90;75.98;99331.50;2216344;40;20026;-83
2021/07/15 04:10:19;;;;;;;3.35;0.55;;;;;;;16.88;75.99;99336.25;2217153;40;20046;-84
2021/07/15 04:11:51;;;;;;;1.63;0.40;;;;;;;16.87;75.91;99337.28;2215977;40;20030;-87
2021/07/15 04:13:26;;;;;;;1.52;0.50;;;;;;;16.93;75.85;99341.91;2216074;40;20022;-84
2021/07/15 04:15:10;;;;;;;0.90;0.30;;;;;;;16.99;75.86;99338.41;2215973;40;20029;-82
2021/07/15 04:16:49;;;;;;;1.25;0.30;;;;;;;17.03;75.32;99335.28;2215755;40;20041;-85
2021/07/15 04:18:27;;;;;;;1.13;0.40;;;;;;;17.02;75.43;99333.59;2215854;40;20018;-85
2021/07/15 04:20:00;;;;;;;1.35;0.38;;;;;;;17.00;75.42;99331.13;2215935;40;20089;-87
2021/07/15 04:21:36;;;;;;;0.28;0.17;;;;;;;16.96;75.72;99335.25;2215979;40;20081;-87
2021/07/15 04:23:08;;;;;;;1.42;0.50;;;;;;;17.00;75.52;99342.75;2215768;40;20045;-86
2021/07/15 04:24:41;;;;;;;2.90;0.85;;;;;;;17.01;75.68;99332.78;2215714;40;20054;-84
2021/07/15 04:26:15;;;;;;;4.70;0.68;;;;;;;17.00;75.75;99342.75;2215730;40;20053;-85
2021/07/15 04:27:50;;;;;;;0.98;0.38;;;;;;;17.01;75.23;99322.00;2215787;40;20080;-85
2021/07/15 04:29:21;;;;;;;1.92;0.45;;;;;;;17.03;75.44;99329.88;2215946;40;20130;-85
2021/07/15 04:30:54;;;;;;;1.15;0.40;;;;;;;17.07;75.52;99328.44;2216025;40;20050;-87
2021/07/15 04:32:29;;;;;;;0.50;0.20;;;;;;;17.09;75.65;99327.19;2215873;40;20018;-87
2021/07/15 04:34:01;;;;;;;1.33;0.40;;;;;;;17.08;75.10;99327.41;2215898;40;20025;-86
2021/07/15 04:35:35;;;;;;;1.25;0.40;;;;;;;17.09;75.28;99329.06;2215895;40;20032;-81
2021/07/15 04:37:08;;;;;;;1.33;0.43;;;;;;;17.10;75.35;99322.63;2215865;40;20207;-84
2021/07/15 04:38:42;;;;;;;3.67;0.73;;;;;;;17.11;75.38;99318.88;2215785;40;20030;-86
2021/07/15 04:40:18;;;;;;;3.28;0.50;;;;;;;17.10;75.03;99320.75;2215623;40;20674;-85
2021/07/15 04:41:49;;;;;;;4.05;0.70;;;;;;;17.12;75.09;99331.34;2215813;40;20026;-87
2021/07/15 04:43:23;;;;;;;1.70;0.47;;;;;;;17.12;75.15;99326.78;2214460;40;20034;-87
2021/07/15 04:44:56;;;;;;;1.80;0.40;;;;;;;17.15;74.80;99320.16;2215851;40;20025;-87
2021/07/15 04:46:28;;;;;;;1.35;0.32;;;;;;;17.18;74.90;99324.28;2215790;40;20014;-85
2021/07/15 04:48:01;;;;;;;1.58;0.50;;;;;;;17.15;75.04;99315.56;2215413;40;20120;-87
2021/07/15 04:49:33;;;;;;;1.52;0.45;;;;;;;17.13;74.50;99320.38;2215848;40;20030;-88
2021/07/15 04:51:10;;;;;;;1.75;0.45;;;;;;;17.10;74.43;99311.81;2215517;40;20569;-83
2021/07/15 04:52:44;;;;;;;1.42;0.40;;;;;;;17.11;74.84;99322.44;2215653;40;20066;-86
2021/07/15 04:54:16;;;;;;;0.98;0.35;;;;;;;17.14;74.93;99321.19;2215695;40;20133;-85
2021/07/15 04:55:49;;;;;;;2.10;0.30;;;;;;;17.20;74.38;99317.66;2215816;40;20033;-84
2021/07/15 04:57:21;;;;;;;3.20;0.35;;;;;;;17.20;74.48;99320.34;2215737;40;20556;-85
2021/07/15 04:58:53;;;;;;;1.48;0.47;;;;;;;17.18;74.36;99327.84;2215679;40;20033;-86
2021/07/15 05:00:26;;;;;;;0.88;0.38;;;;;;;17.18;74.34;99327.00;2213128;40;20022;-83
2021/07/15 05:01:57;;;;;;;2.80;0.30;;;;;;;17.19;74.13;99318.72;2215655;40;20050;-83
2021/07/15 05:03:31;;;;;;;4.22;0.52;;;;;;;17.20;74.26;99319.53;2215709;40;20034;-83
2021/07/15 05:05:04;;;;;;;9.68;2.10;;;;;;;17.25;74.03;99312.47;2215621;40;20045;-79
2021/07/15 05:06:36;;;;;;;2.28;0.60;;;;;;;17.26;74.18;99314.13;2215699;40;20030;-83
2021/07/15 05:08:09;;;;;;;1.73;0.50;;;;;;;17.30;73.97;99320.78;2215343;40;20522;-83
2021/07/15 05:09:41;;;;;;;1.98;0.40;;;;;;;17.34;73.79;99320.38;2214980;40;20034;-82
2021/07/15 05:11:13;;;;;;;0.75;0.30;;;;;;;17.38;73.68;99327.84;2215069;40;20049;-81
2021/07/15 05:12:45;;;;;;;1.95;0.40;;;;;;;17.42;73.40;99328.28;2215267;40;20034;-80
2021/07/15 05:14:18;;;;;;;1.52;0.40;;;;;;;17.49;73.12;99336.38;2215294;40;20572;-79
2021/07/15 05:15:51;;;;;;;1.08;0.40;;;;;;;17.54;73.39;99325.78;2215509;40;20026;-85
2021/07/15 05:17:22;;;;;;;1.50;0.63;;;;;;;17.55;73.18;99319.34;2215429;40;20030;-84
2021/07/15 05:18:53;;;;;;;1.50;0.43;;;;;;;17.55;73.12;99322.88;2215455;40;20037;-79
2021/07/15 05:20:26;;;;;;;2.75;0.82;;;;;;;17.55;72.66;99322.03;2215173;40;20032;-82
2021/07/15 05:21:59;;;;;;;1.35;0.40;;;;;;;17.57;72.78;99326.19;2215164;40;20030;-84
2021/07/15 05:23:32;;;;;;;1.65;0.45;;;;;;;17.60;72.84;99324.97;2215283;40;20037;-84
2021/07/15 05:25:05;;;;;;;1.58;0.57;;;;;;;17.59;72.69;99324.13;2215427;40;20026;-83
2021/07/15 05:26:37;;;;;;;3.40;0.90;;;;;;;17.61;72.54;99319.34;2215351;40;20050;-82
2021/07/15 05:28:07;;;;;;;4.10;0.60;;;;;;;17.64;72.69;99325.38;2215434;40;20045;-85
2021/07/15 05:29:39;;;;;;;2.35;0.60;;;;;;;17.58;72.39;99332.44;2215504;40;20045;-84
2021/07/15 05:31:10;;;;;;;1.80;0.40;;;;;;;17.51;72.71;99343.25;2215474;40;20496;-87
2021/07/15 05:32:43;;;;;;;1.33;0.40;;;;;;;17.52;72.47;99344.91;2215730;40;20019;-87
2021/07/15 05:34:17;;;;;;;1.25;0.43;;;;;;;17.57;72.58;99337.00;2215043;40;20077;-87
2021/07/15 05:35:49;;;;;;;2.08;0.43;;;;;;;17.60;72.62;99341.16;2215101;40;20030;-83
2021/07/15 05:37:20;;;;;;;1.55;0.40;;;;;;;17.63;72.37;99340.72;2215216;40;20058;-83
2021/07/15 05:38:54;;;;;;;2.47;0.50;;;;;;;17.70;72.18;99335.34;2215465;40;20642;-80
2021/07/15 05:40:26;;;;;;;2.08;0.55;;;;;;;17.71;72.21;99351.34;2215297;40;20046;-85
2021/07/15 05:41:59;;;;;;;1.48;0.57;;;;;;;17.69;72.23;99345.31;2215519;40;20079;-87
2021/07/15 05:43:31;;;;;;;2.08;0.50;;;;;;;17.68;72.05;99354.47;2215489;40;20749;-82
2021/07/15 05:45:04;;;;;;;4.50;0.50;;;;;;;17.70;72.31;99348.84;2215393;40;20033;-84
2021/07/15 05:46:36;;;;;;;1.90;0.57;;;;;;;17.68;72.41;99354.47;2208495;40;20514;-86
2021/07/15 05:48:08;;;;;;;1.90;0.40;;;;;;;17.62;72.35;99348.03;2215110;40;20394;-83
2021/07/15 05:49:40;;;;;;;3.78;1.02;;;;;;;17.64;72.13;99341.59;2215485;40;20038;-86
2021/07/15 05:51:11;;;;;;;1.65;0.40;;;;;;;17.66;72.06;99344.91;2215232;40;20029;-83
2021/07/15 05:52:43;;;;;;;3.33;0.63;;;;;;;17.70;72.06;99348.84;2215287;40;20460;-84
2021/07/15 05:54:16;;;;;;;1.13;0.50;;;;;;;17.73;72.02;99351.16;2215809;40;20030;-81
2021/07/15 05:55:48;;;;;;;2.42;0.70;;;;;;;17.77;72.07;99352.38;2202153;40;20030;-80
2021/07/15 05:57:19;;;;;;;1.85;0.43;;;;;;;17.80;71.75;99360.06;2196300;40;20028;-85
2021/07/15 05:58:51;;;;;;;1.80;0.50;;;;;;;17.78;71.64;99340.53;2207035;40;20581;-87
2021/07/15 06:00:21;;;;;;;0.95;0.30;;;;;;;17.74;71.71;99344.69;2214498;40;20045;-80
2021/07/15 06:01:54;;;;;;;1.63;0.40;;;;;;;17.73;71.90;99346.56;2215250;40;20030;-83
2021/07/15 06:03:26;;;;;;;1.80;0.40;;;;;;;17.75;71.76;99352.59;2215092;40;20030;-80
2021/07/15 06:04:58;;;;;;;1.98;0.47;;;;;;;17.78;71.63;99351.34;2215203;40;20037;-80
2021/07/15 06:06:30;;;;;;;1.33;0.47;;;;;;;17.82;71.76;99366.09;2215337;40;20030;-85
2021/07/15 06:08:02;;;;;;;1.52;0.30;;;;;;;17.83;71.50;99362.38;2215362;40;20041;-80
2021/07/15 06:09:36;;;;;;;1.52;0.40;;;;;;;17.86;71.50;99361.13;2215263;40;20027;-80
2021/07/15 06:11:08;;;;;;;3.63;0.50;;;;;;;17.83;71.68;99369.63;2215203;40;20026;-84
2021/07/15 06:12:41;;;;;;;2.03;0.50;;;;;;;17.83;71.65;99367.78;2215231;40;20087;-84
2021/07/15 06:14:13;;;;;;;1.15;0.32;;;;;;;17.84;71.57;99357.78;2215254;40;20436;-84
2021/07/15 06:15:45;;;;;;;3.28;1.42;;;;;;;17.80;71.84;99354.66;2215375;40;20018;-84
2021/07/15 06:17:17;;;;;;;2.95;0.70;;;;;;;17.77;71.84;99360.47;2215186;40;20584;-82
2021/07/15 06:18:49;;;;;;;2.15;0.70;;;;;;;17.80;72.17;99359.25;2216036;40;20402;-84
2021/07/15 06:20:20;;;;;;;2.17;0.50;;;;;;;17.83;71.62;99365.06;2197024;40;20019;-81
2021/07/15 06:21:52;;;;;;;3.67;0.40;;;;;;;17.84;71.56;99364.03;2215338;40;20032;-81
2021/07/15 06:23:25;;;;;;;1.73;0.60;;;;;;;17.89;71.46;99368.81;2216017;40;20041;-81
2021/07/15 06:24:57;;;;;;;1.02;0.30;;;;;;;17.87;71.57;99371.72;2216265;40;20027;-83
2021/07/15 06:26:29;;;;;;;2.78;0.50;;;;;;;17.92;71.32;99368.38;2216102;40;20365;-81
2021/07/15 06:28:01;;;;;;;4.20;0.73;;;;;;;17.96;71.34;99364.25;2216396;40;20046;-82
2021/07/15 06:29:33;;;;;;;2.20;0.57;;;;;;;17.96;71.48;99366.09;2219902;40;20033;-85
2021/07/15 06:31:05;;;;;;;2.63;0.52;;;;;;;17.89;71.76;99372.34;2228535;40;20029;-84
2021/07/15 06:32:36;;;;;;;2.70;0.70;;;;;;;17.96;71.92;99360.69;2228319;40;20040;-85
2021/07/15 06:34:10;;;;;;;2.65;0.40;;;;;;;18.03;71.43;99362.38;2228552;40;20503;-83
2021/07/15 06:35:42;;;;;;;1.58;0.65;;;;;;;18.08;71.47;99362.59;2228774;40;20022;-88
2021/07/15 06:37:13;;;;;;;1.65;0.50;;;;;;;18.12;71.26;99365.69;2228723;40;20044;-86
2021/07/15 06:38:47;;;;;;;2.47;0.50;;;;;;;18.15;71.18;99365.25;2228827;40;20025;-87
2021/07/15 06:40:21;;;;;;;5.43;0.70;;;;;;;18.20;70.80;99368.16;2228475;40;20052;-84
2021/07/15 06:41:57;;;;;;;1.33;0.32;;;;;;;18.14;71.19;99363.59;2228531;40;20067;-87
2021/07/15 06:43:28;;;;;;;2.40;0.43;;;;;;;18.08;71.12;99369.84;2227976;40;20091;-82
2021/07/15 06:45:01;;;;;;;0.55;0.30;;;;;;;18.07;71.27;99358.22;2215714;40;20025;-84
2021/07/15 06:46:33;;;;;;;2.53;0.40;;;;;;;18.07;71.44;99370.88;2216001;40;20100;-86
2021/07/15 06:48:05;;;;;;;1.60;0.57;;;;;;;18.08;71.43;99370.69;2216053;40;20089;-88
2021/07/15 06:49:37;;;;;;;2.83;0.63;;;;;;;18.16;71.26;99376.91;2196797;40;20024;-87
2021/07/15 06:51:09;;;;;;;2.70;1.00;;;;;;;18.31;71.16;99366.69;2191140;40;20854;-83
2021/07/15 06:52:41;;;;;;;3.53;0.77;;;;;;;18.37;70.70;99368.53;2185001;40;20066;-88
2021/07/15 06:54:13;;;;;;;3.08;0.60;;;;;;;18.34;70.79;99363.56;2184645;40;20093;-87
2021/07/15 06:55:49;;;;;;;2.78;0.70;;;;;;;18.31;70.57;99355.84;2184281;40;20045;-88
2021/07/15 06:57:22;;;;;;;4.03;0.73;;;;;;;18.35;70.96;99369.78;2184844;40;20043;-86
2021/07/15 06:58:54;;;;;;;3.60;0.43;;;;;;;18.34;71.05;99363.56;2178701;40;20057;-86
2021/07/15 07:00:26;;;;;;;2.10;0.60;;;;;;;18.39;70.72;99360.22;2178564;40;20991;-86
2021/07/15 07:01:57;;;;;;;2.55;0.40;;;;;;;18.39;70.62;99365.63;2166700;41;20037;-81
2021/07/15 07:03:29;;;;;;;3.88;0.70;;;;;;;18.44;70.81;99352.28;2160560;41;20066;-82
2021/07/15 07:04:59;;;;;;;2.50;0.60;;;;;;;18.49;70.50;99351.63;2154874;41;20031;-86
2021/07/15 07:06:31;;;;;;;0.95;0.32;;;;;;;18.46;70.52;99347.50;2155088;41;20019;-83
2021/07/15 07:08:03;;;;;;;3.53;0.55;;;;;;;18.45;70.47;99347.72;2181587;40;20044;-87
2021/07/15 07:09:34;;;;;;;1.48;0.40;;;;;;;18.43;70.56;99352.50;2201678;40;20018;-83
2021/07/15 07:11:08;;;;;;;2.75;0.30;;;;;;;18.34;70.59;99357.31;2215711;40;20074;-80
2021/07/15 07:12:40;;;;;;;1.60;0.50;;;;;;;18.35;70.59;99359.81;2215957;40;20512;-87
2021/07/15 07:14:12;;;;;;;3.40;0.40;;;;;;;18.40;70.65;99361.88;2216301;40;20026;-85
2021/07/15 07:15:44;;;;;;;3.35;0.50;;;;;;;18.37;70.66;99362.28;2216210;40;20022;-89
2021/07/15 07:17:15;;;;;;;1.52;0.43;;;;;;;18.40;70.80;99364.59;2202736;40;20019;-87
2021/07/15 07:18:48;;;;;;;5.13;2.10;;;;;;;18.47;70.39;99362.69;2202618;40;20035;-86
2021/07/15 07:20:20;;;;;;;2.13;0.93;;;;;;;18.54;69.78;99359.97;2202569;40;20058;-86
2021/07/15 07:21:52;;;;;;;1.00;0.30;;;;;;;18.51;69.62;99363.94;2202832;40;20484;-86
2021/07/15 07:23:24;;;;;;;3.20;0.65;;;;;;;18.50;69.14;99364.97;2196390;40;20038;-83
2021/07/15 07:24:55;;;;;;;2.40;0.70;;;;;;;18.47;69.26;99362.69;2196454;40;20031;-87
2021/07/15 07:26:28;;;;;;;0.85;0.40;;;;;;;18.52;68.74;99360.16;2192403;40;20088;-87
2021/07/15 07:28:00;;;;;;;3.00;0.32;;;;;;;18.46;68.51;99361.03;2184831;40;20028;-86
2021/07/15 07:29:31;;;;;;;1.35;0.40;;;;;;;18.51;68.39;99361.22;2184622;40;20024;-86
2021/07/15 07:31:03;;;;;;;1.98;0.38;;;;;;;18.48;68.45;99358.09;2183460;40;20039;-87
2021/07/15 07:32:35;;;;;;;2.00;0.68;;;;;;;18.54;68.66;99366.19;2178828;40;20040;-85
2021/07/15 07:34:07;;;;;;;1.00;0.40;;;;;;;18.65;68.29;99372.00;2178390;40;20961;-86
2021/07/15 07:35:39;;;;;;;1.40;0.45;;;;;;;18.72;67.97;99372.78;2172644;41;20044;-86
2021/07/15 07:37:11;;;;;;;1.52;0.60;;;;;;;18.81;67.75;99367.97;2167001;41;20034;-84
2021/07/15 07:38:43;;;;;;;2.03;0.40;;;;;;;18.96;67.69;99373.13;2178460;40;20583;-86
2021/07/15 07:42:01;;;;;;;3.75;0.50;;;;;;;19.16;66.69;99375.72;2271034;39;20394;-89
2021/07/15 07:43:33;;;;;;;2.92;0.40;;;;;;;19.17;66.63;99383.66;2271371;39;20570;-82
2021/07/15 07:45:07;;;;;;;2.35;0.40;;;;;;;19.25;66.69;99379.03;2263219;39;20037;-81
2021/07/15 07:46:38;;;;;;;0.80;0.38;;;;;;;19.30;66.40;99381.88;2250982;39;20040;-83
2021/07/15 07:48:10;;;;;;;0.90;0.30;;;;;;;19.35;66.35;99373.09;2259673;39;20045;-83
2021/07/15 07:49:41;;;;;;;2.13;0.45;;;;;;;19.41;65.62;99383.91;2263560;39;20027;-86
2021/07/15 07:51:13;;;;;;;4.03;0.82;;;;;;;19.42;65.40;99374.72;2244575;39;20055;-86
2021/07/15 07:52:45;;;;;;;2.17;0.77;;;;;;;19.43;65.00;99387.22;2241081;39;20704;-85
2021/07/15 07:54:17;;;;;;;1.45;0.45;;;;;;;19.53;64.85;99380.50;2244608;39;20020;-85
2021/07/15 07:55:48;;;;;;;1.67;0.50;;;;;;;19.56;64.48;99385.47;2244625;39;20048;-86
2021/07/15 07:57:21;;;;;;;2.90;0.40;;;;;;;19.61;64.73;99382.94;2231909;40;20740;-84
2021/07/15 07:58:53;;;;;;;0.73;0.20;;;;;;;19.59;64.89;99387.75;2232057;40;20488;-85
2021/07/15 08:00:25;;;;;;;3.45;0.90;;;;;;;19.50;64.63;99384.47;2232149;40;20024;-85
2021/07/15 08:01:56;;;;;;;1.85;0.50;;;;;;;19.44;64.44;99391.59;2213823;40;20049;-86
2021/07/15 08:03:28;;;;;;;1.83;0.40;;;;;;;19.42;64.45;99392.84;2213708;40;20070;-83
2021/07/15 08:04:59;;;;;;;0.73;0.30;;;;;;;19.46;64.50;99388.66;2200689;40;20031;-84
2021/07/15 08:06:34;;;;;;;0.75;0.30;;;;;;;19.52;64.21;99387.78;2204838;40;20087;-83
2021/07/15 08:08:06;;;;;;;1.25;0.40;;;;;;;19.62;63.96;99387.31;2207228;40;20018;-84
2021/07/15 08:09:43;;;;;;;1.13;0.40;;;;;;;19.67;63.75;99389.34;2210016;40;20050;-84
2021/07/15 08:11:16;;;;;;;1.08;0.40;;;;;;;19.68;63.73;99394.53;2219795;40;20116;-82
2021/07/15 08:12:50;;;;;;;2.47;0.40;;;;;;;19.57;63.97;99389.84;2218295;40;20034;-82
2021/07/15 08:14:22;;;;;;;2.10;0.50;;;;;;;19.47;64.25;99390.34;2217460;40;20066;-83
2021/07/15 08:15:53;;;;;;;3.55;0.68;;;;;;;19.49;64.58;99391.75;2225320;40;20033;-83
2021/07/15 08:17:25;;;;;;;1.27;0.45;;;;;;;19.59;64.43;99393.16;2232282;40;20033;-84
2021/07/15 08:18:57;;;;;;;1.95;0.50;;;;;;;19.65;64.09;99394.97;2225633;40;20018;-83
2021/07/15 08:20:29;;;;;;;5.15;0.68;;;;;;;19.68;64.42;99404.56;2224987;39;20028;-85
2021/07/15 08:22:01;;;;;;;4.32;0.60;;;;;;;19.56;64.56;99405.28;2236303;39;20109;-84
2021/07/15 08:23:34;;;;;;;2.05;0.60;;;;;;;19.46;64.73;99403.03;2225871;40;20044;-84
2021/07/15 08:25:07;;;;;;;1.25;0.43;;;;;;;19.44;64.72;99399.75;2241083;39;20055;-85
2021/07/15 08:26:38;;;;;;;4.28;0.50;;;;;;;19.37;64.46;99398.94;2244634;39;20020;-84
2021/07/15 08:28:12;;;;;;;5.88;3.15;;;;;;;19.28;64.57;99400.22;2238121;39;20044;-86
2021/07/15 08:29:44;;;;;;;3.22;1.35;;;;;;;19.18;64.66;99401.53;2225672;40;20024;-85
2021/07/15 08:31:15;;;;;;;3.00;1.00;;;;;;;19.12;64.52;99407.84;2221186;40;20091;-86
2021/07/15 08:32:47;;;;;;;1.73;0.65;;;;;;;19.17;64.73;99409.91;2225946;40;20510;-85
2021/07/15 08:34:18;;;;;;;1.27;0.43;;;;;;;19.21;64.29;99407.59;2212915;40;20589;-87
2021/07/15 08:35:50;;;;;;;1.52;0.50;;;;;;;19.28;64.08;99414.63;2201027;40;20023;-83
2021/07/15 08:37:21;;;;;;;5.63;1.60;;;;;;;19.33;63.98;99416.69;2205500;40;20478;-86
2021/07/15 08:38:53;;;;;;;5.90;1.63;;;;;;;19.35;63.78;99411.03;2213478;40;20045;-84
2021/07/15 08:40:24;;;;;;;3.90;0.82;;;;;;;19.40;63.81;99425.59;2200840;40;20764;-86
2021/07/15 08:41:58;;;;;;;2.33;0.68;;;;;;;19.43;63.56;99421.63;2199633;40;20074;-85
2021/07/15 08:43:32;;;;;;;2.70;0.40;;;;;;;19.45;63.32;99414.97;2213097;40;20053;-84
2021/07/15 08:45:07;;;;;;;1.40;0.50;;;;;;;19.45;63.59;99417.66;2213202;40;20023;-85
2021/07/15 08:46:40;;;;;;;2.15;0.60;;;;;;;19.44;63.48;99424.13;2194839;40;20028;-85
2021/07/15 08:48:13;;;;;;;2.85;0.57;;;;;;;19.45;63.91;99419.53;2185182;40;20067;-85